Time;durP1;ratioP1;P1;durP2;ratioP2;P2;SDS_P1;SDS_P2;PMS_P1;PMS_P2;Temp;Humidity;BMP_temperature;BMP_pressure;BME280_temperature;BME280_humidity;BME280_pressure;Samples;Min_cycle;Max_cycle;Signal;HPM_P1;HPM_P2
2023/06/03 00:00:25;;;;;;;7.50;3.00;;;;;;;14.61;100.00;99330.66;5019902;28;20232;-77
2023/06/03 00:02:54;;;;;;;6.17;3.53;;;;;;;14.41;100.00;99323.31;5031815;28;20200;-77
2023/06/03 00:05:22;;;;;;;7.13;3.00;;;;;;;14.36;100.00;99320.16;5030157;28;20190;-77
2023/06/03 00:07:51;;;;;;;7.67;3.50;;;;;;;14.38;100.00;99318.22;5027826;28;20224;-77
2023/06/03 00:10:19;;;;;;;8.73;2.93;;;;;;;14.32;100.00;99325.72;5024133;28;20190;-77
2023/06/03 00:12:49;;;;;;;7.60;3.23;;;;;;;14.41;100.00;99320.66;5026201;28;20202;-77
2023/06/03 00:15:18;;;;;;;8.97;3.80;;;;;;;14.11;100.00;99326.53;5027075;28;20276;-77
2023/06/03 00:17:47;;;;;;;6.13;3.60;;;;;;;14.22;100.00;99319.41;5028870;28;20266;-77
2023/06/03 00:20:16;;;;;;;6.40;3.17;;;;;;;14.22;100.00;99318.56;5025750;28;20198;-77
2023/06/03 00:22:45;;;;;;;6.60;3.13;;;;;;;14.25;100.00;99327.16;5028768;28;20206;-77
2023/06/03 00:25:13;;;;;;;6.10;3.10;;;;;;;14.14;100.00;99318.28;5025154;28;20254;-77
2023/06/03 00:27:43;;;;;;;6.50;2.73;;;;;;;14.15;100.00;99322.66;5029504;28;20714;-76
2023/06/03 00:30:13;;;;;;;7.23;3.13;;;;;;;13.99;100.00;99318.50;5028570;28;20209;-77
2023/06/03 00:32:41;;;;;;;7.77;3.13;;;;;;;14.35;100.00;99321.97;5019907;28;20291;-77
2023/06/03 00:35:10;;;;;;;5.83;3.13;;;;;;;14.29;100.00;99322.47;5027412;28;20703;-77
2023/06/03 00:37:41;;;;;;;4.30;2.50;;;;;;;14.02;100.00;99325.41;5027875;28;20204;-77
2023/06/03 00:40:10;;;;;;;6.37;3.00;;;;;;;14.29;100.00;99311.81;5025151;28;20412;-77
2023/06/03 00:42:38;;;;;;;5.33;2.87;;;;;;;14.19;100.00;99319.66;5024914;28;20649;-77
2023/06/03 00:45:08;;;;;;;4.90;2.80;;;;;;;14.16;100.00;99313.69;5027445;28;20193;-77
2023/06/03 00:47:38;;;;;;;6.30;2.53;;;;;;;13.92;100.00;99319.06;5031289;28;20204;-77
2023/06/03 00:50:13;;;;;;;6.93;2.90;;;;;;;13.80;100.00;99322.63;5022810;28;20201;-76
2023/06/03 00:52:42;;;;;;;6.87;2.53;;;;;;;13.90;100.00;99307.69;5032477;28;20201;-77
2023/06/03 00:55:11;;;;;;;7.20;2.30;;;;;;;13.85;100.00;99318.66;5029316;28;20229;-77
2023/06/03 00:57:39;;;;;;;5.07;2.70;;;;;;;13.66;100.00;99318.34;5029603;28;20280;-77
2023/06/03 01:00:08;;;;;;;5.00;2.00;;;;;;;13.90;100.00;99315.69;5026966;28;20197;-77
2023/06/03 01:02:43;;;;;;;6.03;2.50;;;;;;;14.08;100.00;99321.41;5027715;28;20201;-77
2023/06/03 01:05:13;;;;;;;5.30;2.10;;;;;;;13.79;100.00;99326.25;5034431;28;20189;-77
2023/06/03 01:07:51;;;;;;;4.43;2.10;;;;;;;13.78;100.00;99319.25;5025833;28;20208;-77
2023/06/03 01:10:24;;;;;;;5.57;2.47;;;;;;;13.72;100.00;99318.75;5028384;28;20206;-77
2023/06/03 01:13:01;;;;;;;5.10;2.27;;;;;;;13.57;100.00;99322.53;5029676;28;20275;-77
2023/06/03 01:15:31;;;;;;;6.47;2.30;;;;;;;13.63;100.00;99316.75;5033792;28;20213;-77
2023/06/03 01:18:06;;;;;;;5.97;2.00;;;;;;;13.81;100.00;99314.56;5029014;28;20205;-77
2023/06/03 01:20:36;;;;;;;4.80;2.27;;;;;;;13.59;100.00;99317.09;5036186;28;20189;-77
2023/06/03 01:23:23;;;;;;;5.63;2.03;;;;;;;13.35;100.00;99312.63;5033387;28;20190;-79
2023/06/03 01:25:56;;;;;;;5.13;2.20;;;;;;;13.59;100.00;99317.09;5033235;28;20221;-77
2023/06/03 01:28:25;;;;;;;4.23;1.70;;;;;;;13.63;100.00;99311.44;5031691;28;20723;-76
2023/06/03 01:30:55;;;;;;;5.23;1.90;;;;;;;13.44;100.00;99313.75;5025861;28;20198;-78
2023/06/03 01:33:24;;;;;;;4.40;1.93;;;;;;;13.61;98.50;99301.88;5029200;28;20201;-77
2023/06/03 01:35:55;;;;;;;5.03;2.10;;;;;;;13.50;98.87;99312.44;4970932;28;20223;-77
2023/06/03 01:38:26;;;;;;;6.20;1.93;;;;;;;13.36;97.91;99311.66;4971066;28;20207;-77
2023/06/03 01:40:55;;;;;;;4.53;2.07;;;;;;;13.40;98.24;99309.59;4971248;28;20371;-77
2023/06/03 01:43:23;;;;;;;5.27;2.00;;;;;;;13.32;97.06;99307.53;4966709;28;20241;-77
2023/06/03 01:45:52;;;;;;;5.53;2.07;;;;;;;13.45;94.49;99305.66;4970958;28;20202;-78
2023/06/03 01:48:20;;;;;;;3.80;1.70;;;;;;;13.29;94.91;99306.88;4968804;28;20278;-77
2023/06/03 01:50:49;;;;;;;11.17;2.50;;;;;;;13.01;95.30;99308.00;4970017;28;20203;-77
2023/06/03 01:53:18;;;;;;;4.17;1.90;;;;;;;13.14;94.49;99307.00;4976931;28;20200;-77
2023/06/03 01:55:48;;;;;;;3.37;1.80;;;;;;;13.02;94.43;99312.34;5034572;28;20221;-76
2023/06/03 01:58:16;;;;;;;4.23;1.67;;;;;;;13.03;92.67;99300.78;5028872;28;20198;-77
2023/06/03 02:00:45;;;;;;;6.87;1.90;;;;;;;13.22;91.58;99306.50;4990211;28;20199;-77
2023/06/03 02:03:13;;;;;;;5.60;2.00;;;;;;;13.16;89.68;99304.25;4981372;28;20223;-77
2023/06/03 02:05:42;;;;;;;3.83;1.60;;;;;;;12.92;89.39;99305.97;4987480;28;20223;-76
2023/06/03 02:08:13;;;;;;;5.57;1.73;;;;;;;12.87;89.35;99309.84;4985699;28;20733;-76
2023/06/03 02:10:41;;;;;;;3.80;1.70;;;;;;;13.00;89.66;99301.81;4982730;28;20210;-77
2023/06/03 02:13:13;;;;;;;3.07;1.70;;;;;;;12.90;88.14;99311.41;4987071;28;20423;-77
2023/06/03 02:15:42;;;;;;;3.70;1.30;;;;;;;13.00;88.05;99311.63;4989754;28;20214;-77
2023/06/03 02:18:11;;;;;;;4.97;1.70;;;;;;;12.94;87.20;99304.09;4994447;28;20665;-77
2023/06/03 02:20:39;;;;;;;3.60;1.53;;;;;;;12.76;87.34;99307.09;5030400;28;20265;-76
2023/06/03 02:23:07;;;;;;;3.87;1.43;;;;;;;12.83;86.50;99303.03;5028450;28;20197;-77
2023/06/03 02:25:36;;;;;;;6.73;1.90;;;;;;;12.75;86.94;99297.41;4973122;28;1440591;-77
2023/06/03 02:28:06;;;;;;;4.47;1.63;;;;;;;12.80;85.72;99297.06;5029680;28;20228;-76
2023/06/03 02:30:36;;;;;;;4.87;1.50;;;;;;;12.98;83.50;99297.59;5028763;28;20248;-77
2023/06/03 02:33:04;;;;;;;2.23;1.33;;;;;;;12.85;83.77;99305.59;5027238;28;20202;-77
2023/06/03 02:35:34;;;;;;;3.03;1.40;;;;;;;12.83;82.01;99297.69;5026523;28;20275;-77
2023/06/03 02:38:02;;;;;;;5.67;1.40;;;;;;;12.78;83.00;99299.00;5024485;28;20221;-77
2023/06/03 02:40:31;;;;;;;3.73;1.40;;;;;;;12.69;82.88;99300.50;5031758;28;20190;-77
2023/06/03 02:42:59;;;;;;;3.40;1.43;;;;;;;12.74;82.74;99306.34;4965879;28;20271;-77
2023/06/03 02:45:27;;;;;;;4.00;1.70;;;;;;;12.70;81.98;99315.50;4968647;28;20203;-77
2023/06/03 02:47:57;;;;;;;3.93;1.53;;;;;;;12.65;81.05;99307.00;4964360;28;20204;-77
2023/06/03 02:50:26;;;;;;;4.87;1.30;;;;;;;12.49;82.55;99309.03;4941354;28;20200;-77
2023/06/03 02:52:54;;;;;;;4.63;1.60;;;;;;;12.64;81.15;99307.09;4963746;28;20199;-77
2023/06/03 02:55:23;;;;;;;2.53;1.20;;;;;;;12.45;81.70;99310.16;4970657;28;20299;-77
2023/06/03 02:57:51;;;;;;;5.77;1.57;;;;;;;12.45;82.66;99307.50;4951910;28;20241;-77
2023/06/03 03:00:20;;;;;;;2.70;1.30;;;;;;;12.35;82.42;99317.91;4974066;28;20224;-76
2023/06/03 03:02:48;;;;;;;4.07;1.60;;;;;;;12.42;81.31;99318.38;5025940;28;20186;-76
2023/06/03 03:05:18;;;;;;;2.67;1.70;;;;;;;12.71;79.15;99314.53;5019988;28;20202;-76
2023/06/03 03:07:47;;;;;;;5.37;1.50;;;;;;;12.74;78.54;99319.66;5030309;28;20193;-76
2023/06/03 03:10:16;;;;;;;2.83;1.30;;;;;;;12.59;78.91;99326.88;5027847;28;20198;-77
2023/06/03 03:12:44;;;;;;;2.07;1.30;;;;;;;12.44;79.86;99330.56;5031302;28;20209;-77
2023/06/03 03:15:12;;;;;;;2.13;1.23;;;;;;;12.45;79.74;99334.09;5030157;28;20216;-77
2023/06/03 03:17:41;;;;;;;3.37;1.60;;;;;;;12.49;78.25;99325.81;5023891;28;20229;-77
2023/06/03 03:20:10;;;;;;;2.83;1.20;;;;;;;12.33;78.57;99328.66;5024467;28;20204;-76
2023/06/03 03:22:44;;;;;;;4.00;1.60;;;;;;;12.50;78.00;99331.97;5026425;28;20208;-77
2023/06/03 03:25:12;;;;;;;4.53;1.33;;;;;;;12.37;77.52;99331.97;5027561;28;20208;-77
2023/06/03 03:27:41;;;;;;;4.50;1.10;;;;;;;12.37;77.20;99339.94;5029070;28;20693;-76
2023/06/03 03:30:10;;;;;;;3.43;1.20;;;;;;;12.50;76.29;99332.81;5028606;28;20198;-77
2023/06/03 03:32:39;;;;;;;5.40;1.20;;;;;;;12.41;77.17;99336.09;5006036;28;20664;-77
2023/06/03 03:35:13;;;;;;;2.20;1.10;;;;;;;12.40;76.64;99339.72;5023946;28;20209;-77
2023/06/03 03:37:44;;;;;;;8.17;1.43;;;;;;;12.53;76.09;99343.22;4993142;28;20224;-77
2023/06/03 03:40:18;;;;;;;2.63;1.10;;;;;;;12.16;77.58;99341.38;5029704;28;20244;-77
2023/06/03 03:42:51;;;;;;;3.03;1.40;;;;;;;12.15;78.11;99343.19;5022580;28;20205;-77
2023/06/03 03:45:21;;;;;;;1.67;1.03;;;;;;;12.44;76.75;99350.97;5027990;28;20202;-77
2023/06/03 03:47:50;;;;;;;3.93;1.17;;;;;;;12.05;77.23;99350.06;5023235;28;20202;-77
2023/06/03 03:50:40;;;;;;;3.37;1.20;;;;;;;12.27;75.67;99350.34;5027030;28;20197;-77
2023/06/03 03:53:13;;;;;;;2.30;1.30;;;;;;;12.30;75.16;99346.63;5029175;28;20202;-77
2023/06/03 03:55:44;;;;;;;3.37;1.40;;;;;;;12.27;75.02;99346.84;5030783;28;20221;-77
2023/06/03 03:58:40;;;;;;;5.47;1.30;;;;;;;12.25;74.87;99348.72;5027466;28;20217;-77
2023/06/03 04:01:12;;;;;;;2.20;1.07;;;;;;;12.41;74.05;99354.69;5027262;28;20852;-77
2023/06/03 04:03:41;;;;;;;1.70;1.13;;;;;;;12.31;74.67;99356.28;5023915;28;20235;-77
2023/06/03 04:06:11;;;;;;;4.30;1.10;;;;;;;12.23;73.77;99364.78;5028852;28;20648;-77
2023/06/03 04:08:46;;;;;;;5.33;1.37;;;;;;;12.10;74.52;99363.06;5023581;28;20209;-77
2023/06/03 04:11:20;;;;;;;3.47;1.20;;;;;;;12.22;74.62;99364.88;5026366;28;20202;-77
2023/06/03 04:13:50;;;;;;;3.17;1.10;;;;;;;12.16;75.53;99357.31;5028816;28;20189;-77
2023/06/03 04:16:48;;;;;;;4.30;1.30;;;;;;;12.28;74.78;99369.78;5026374;28;20284;-77
2023/06/03 04:19:20;;;;;;;2.93;1.30;;;;;;;12.16;75.32;99362.63;5027469;28;20194;-77
2023/06/03 04:21:48;;;;;;;5.90;1.40;;;;;;;12.27;75.05;99354.81;5029977;28;20208;-77
2023/06/03 04:24:18;;;;;;;2.90;1.17;;;;;;;12.42;75.83;99368.84;5032953;28;20200;-78
2023/06/03 04:26:47;;;;;;;4.37;1.20;;;;;;;12.35;75.38;99359.56;5023700;28;20233;-77
2023/06/03 04:29:15;;;;;;;1.53;1.03;;;;;;;12.32;75.03;99358.84;5025326;28;20197;-77
2023/06/03 04:31:43;;;;;;;1.87;1.00;;;;;;;12.43;76.24;99358.09;5024295;28;20281;-77
2023/06/03 04:34:12;;;;;;;2.70;1.17;;;;;;;12.30;75.24;99359.91;5022254;28;20273;-77
2023/06/03 04:36:41;;;;;;;3.00;1.10;;;;;;;12.48;75.29;99363.13;5028805;28;20194;-77
2023/06/03 04:39:10;;;;;;;2.17;1.33;;;;;;;12.51;74.16;99369.06;5027259;28;20214;-77
2023/06/03 04:41:41;;;;;;;4.37;1.10;;;;;;;12.50;74.24;99367.34;5023389;28;20193;-77
2023/06/03 04:44:11;;;;;;;4.73;1.10;;;;;;;12.52;73.73;99370.75;5028076;28;20273;-77
2023/06/03 04:46:40;;;;;;;3.97;1.37;;;;;;;12.56;73.41;99364.28;5026936;28;20194;-77
2023/06/03 04:49:09;;;;;;;3.57;1.60;;;;;;;12.30;74.91;99368.72;5021735;28;20206;-77
2023/06/03 04:51:40;;;;;;;4.20;1.47;;;;;;;12.39;75.95;99374.38;5029882;28;20197;-77
2023/06/03 04:54:08;;;;;;;3.47;1.10;;;;;;;12.53;76.10;99368.94;5029713;28;20201;-77
2023/06/03 04:56:37;;;;;;;4.40;1.00;;;;;;;12.45;75.26;99368.63;5023077;28;20201;-77
2023/06/03 04:59:07;;;;;;;4.47;1.20;;;;;;;12.56;75.66;99366.94;5022191;28;20707;-77
2023/06/03 05:01:36;;;;;;;2.13;1.00;;;;;;;12.42;76.37;99367.03;5028547;28;20201;-77
2023/06/03 05:04:08;;;;;;;4.07;1.13;;;;;;;12.60;76.48;99363.09;5026993;28;20251;-77
2023/06/03 05:06:39;;;;;;;1.77;1.00;;;;;;;12.46;76.59;99367.69;5027170;28;20208;-77
2023/06/03 05:09:09;;;;;;;2.23;1.23;;;;;;;12.60;75.89;99365.78;5024899;28;20189;-77
2023/06/03 05:11:38;;;;;;;3.83;1.10;;;;;;;12.75;74.27;99353.25;5022654;28;20202;-77
2023/06/03 05:14:08;;;;;;;5.03;1.47;;;;;;;12.85;72.72;99361.41;5021916;28;20196;-77
2023/06/03 05:16:37;;;;;;;2.03;0.97;;;;;;;12.88;73.48;99364.69;5025234;28;20202;-77
2023/06/03 05:19:05;;;;;;;2.10;1.10;;;;;;;12.97;72.68;99363.22;5026668;28;20218;-77
2023/06/03 05:21:35;;;;;;;2.83;1.17;;;;;;;12.97;72.15;99368.53;5025207;28;20217;-77
2023/06/03 05:24:05;;;;;;;4.70;1.30;;;;;;;12.92;73.06;99365.31;5025595;28;20232;-77
2023/06/03 05:26:34;;;;;;;3.60;1.30;;;;;;;12.84;74.47;99371.22;4994356;28;20222;-77
2023/06/03 05:29:02;;;;;;;5.67;1.50;;;;;;;13.11;72.93;99367.53;5004248;28;20630;-77
2023/06/03 05:31:33;;;;;;;2.87;1.40;;;;;;;13.13;71.58;99363.84;5003463;28;20213;-77
2023/06/03 05:34:01;;;;;;;1.80;1.10;;;;;;;13.13;71.09;99365.66;5004638;28;20297;-77
2023/06/03 05:36:29;;;;;;;4.10;1.37;;;;;;;13.10;71.25;99361.38;5001967;28;20213;-77
2023/06/03 05:38:58;;;;;;;4.83;1.57;;;;;;;13.35;71.02;99364.97;5008717;28;20689;-77
2023/06/03 05:41:26;;;;;;;2.70;1.20;;;;;;;13.51;70.01;99372.69;5001006;28;20198;-77
2023/06/03 05:43:55;;;;;;;1.90;1.10;;;;;;;13.43;69.63;99366.13;5004276;28;20225;-77
2023/06/03 05:46:24;;;;;;;1.57;1.10;;;;;;;13.31;70.73;99369.66;4954777;28;20202;-77
2023/06/03 05:48:54;;;;;;;2.77;1.40;;;;;;;13.37;69.97;99365.72;5008225;28;20206;-77
2023/06/03 05:51:24;;;;;;;3.37;1.50;;;;;;;13.36;68.48;99369.34;5009705;28;20191;-77
2023/06/03 05:53:52;;;;;;;3.90;1.53;;;;;;;13.56;68.72;99376.72;5005695;28;20195;-77
2023/06/03 05:56:20;;;;;;;5.13;1.43;;;;;;;13.83;69.53;99370.34;5012208;28;20203;-77
2023/06/03 05:58:49;;;;;;;3.97;1.40;;;;;;;14.04;70.09;99361.59;5012833;28;20301;-77
2023/06/03 06:01:17;;;;;;;2.90;1.20;;;;;;;14.14;68.11;99368.91;5005711;28;20576;-77
2023/06/03 06:03:46;;;;;;;2.67;1.10;;;;;;;13.85;67.80;99379.06;5007985;28;20190;-76
2023/06/03 06:06:16;;;;;;;3.93;1.30;;;;;;;14.30;65.41;99372.13;5008692;28;20204;-77
2023/06/03 06:08:44;;;;;;;3.93;1.20;;;;;;;14.07;66.00;99379.16;5007658;28;20213;-77
2023/06/03 06:11:15;;;;;;;3.20;1.30;;;;;;;13.91;67.10;99370.63;5013102;28;20191;-77
2023/06/03 06:13:43;;;;;;;4.40;1.23;;;;;;;14.20;66.51;99365.78;5011907;28;20277;-77
2023/06/03 06:16:12;;;;;;;3.53;1.47;;;;;;;14.13;67.87;99367.22;5005336;28;20206;-77
2023/06/03 06:18:40;;;;;;;3.10;1.07;;;;;;;14.42;66.29;99371.19;5015217;28;20244;-77
2023/06/03 06:21:09;;;;;;;3.63;1.23;;;;;;;14.46;67.90;99369.13;5012723;28;20273;-77
2023/06/03 06:23:39;;;;;;;4.03;1.20;;;;;;;14.40;67.20;99369.59;5008500;28;20206;-76
2023/06/03 06:26:08;;;;;;;3.77;1.50;;;;;;;14.62;66.92;99368.81;5013868;28;20244;-77
2023/06/03 06:28:36;;;;;;;3.63;1.27;;;;;;;14.82;66.62;99368.13;5029359;28;20668;-77
2023/06/03 06:31:06;;;;;;;4.80;1.60;;;;;;;14.79;66.68;99363.88;5030639;28;20224;-77
2023/06/03 06:33:36;;;;;;;3.23;1.50;;;;;;;14.88;65.58;99367.66;5027238;28;20206;-77
2023/06/03 06:36:12;;;;;;;5.17;1.43;;;;;;;14.72;65.79;99372.47;5026763;28;20676;-77
2023/06/03 06:38:42;;;;;;;5.03;1.30;;;;;;;14.76;66.77;99366.78;5031020;28;20253;-77
2023/06/03 06:41:13;;;;;;;2.50;1.47;;;;;;;14.97;66.79;99363.41;5028371;28;20205;-78
2023/06/03 06:43:41;;;;;;;5.00;1.10;;;;;;;15.08;67.39;99364.25;5027623;28;20225;-77
2023/06/03 06:46:10;;;;;;;2.77;1.10;;;;;;;15.00;66.01;99372.00;5025020;28;20218;-78
2023/06/03 06:48:40;;;;;;;2.93;1.40;;;;;;;15.04;66.62;99362.78;5025914;28;20202;-77
2023/06/03 06:51:08;;;;;;;3.03;1.37;;;;;;;15.25;65.63;99367.38;5028681;28;20291;-77
2023/06/03 06:53:37;;;;;;;3.40;1.70;;;;;;;15.38;66.15;99363.63;5027979;28;20201;-77
2023/06/03 06:56:09;;;;;;;3.07;1.40;;;;;;;15.52;65.07;99367.00;5027037;28;20193;-78
2023/06/03 06:58:39;;;;;;;2.80;1.40;;;;;;;15.58;63.74;99372.69;5030836;28;20249;-77
2023/06/03 07:01:11;;;;;;;3.57;1.50;;;;;;;15.70;64.13;99371.72;5029904;28;20190;-78
2023/06/03 07:03:39;;;;;;;2.93;1.30;;;;;;;15.91;65.62;99366.44;5027052;28;20197;-77
2023/06/03 07:06:07;;;;;;;3.67;1.30;;;;;;;15.86;65.78;99365.97;5027301;28;20545;-77
2023/06/03 07:08:36;;;;;;;4.17;1.70;;;;;;;15.94;65.00;99358.19;5031372;28;20269;-77
2023/06/03 07:11:07;;;;;;;3.00;1.40;;;;;;;16.00;66.50;99363.00;5030063;28;20201;-77
2023/06/03 07:13:36;;;;;;;3.50;1.80;;;;;;;16.03;65.65;99361.91;5029341;28;20274;-78
2023/06/03 07:16:05;;;;;;;4.00;1.50;;;;;;;16.12;64.04;99369.16;4964960;28;20196;-77
2023/06/03 07:18:34;;;;;;;4.53;1.50;;;;;;;16.13;64.39;99362.00;4970249;28;20211;-77
2023/06/03 07:21:02;;;;;;;2.33;1.60;;;;;;;16.27;65.24;99359.84;4973018;28;20752;-77
2023/06/03 07:23:31;;;;;;;5.13;1.63;;;;;;;16.23;66.39;99365.59;4917471;28;20319;-77
2023/06/03 07:26:00;;;;;;;3.70;1.67;;;;;;;16.25;65.61;99368.97;4973765;28;20231;-78
2023/06/03 07:28:32;;;;;;;3.67;1.47;;;;;;;16.37;64.79;99375.09;4990109;28;20211;-77
2023/06/03 07:31:06;;;;;;;4.70;1.67;;;;;;;16.48;64.80;99373.22;4990733;28;20234;-78
2023/06/03 07:33:41;;;;;;;2.53;1.60;;;;;;;16.51;64.20;99366.78;4965352;28;20189;-77
2023/06/03 07:36:09;;;;;;;4.97;1.90;;;;;;;16.74;65.75;99365.69;5027130;28;20209;-77
2023/06/03 07:38:59;;;;;;;4.70;1.97;;;;;;;16.96;64.50;99355.78;5024494;28;20221;-77
2023/06/03 07:41:39;;;;;;;2.87;1.50;;;;;;;17.04;64.11;99359.50;5030420;28;20197;-78
2023/06/03 07:44:11;;;;;;;2.87;1.80;;;;;;;17.17;63.85;99369.97;5033608;28;20232;-78
2023/06/03 07:46:41;;;;;;;4.90;2.20;;;;;;;17.15;62.66;99363.91;5032104;28;20614;-78
2023/06/03 07:49:11;;;;;;;5.37;2.20;;;;;;;17.26;63.67;99366.47;5010686;28;20201;-78
2023/06/03 07:51:42;;;;;;;3.40;1.70;;;;;;;17.52;62.39;99364.16;4986299;28;20202;-78
2023/06/03 07:54:11;;;;;;;5.10;1.90;;;;;;;17.60;62.61;99364.31;4986639;28;20199;-77
2023/06/03 07:56:40;;;;;;;3.30;1.80;;;;;;;17.30;61.71;99361.72;4989031;28;20231;-77
2023/06/03 07:59:12;;;;;;;3.50;1.80;;;;;;;17.58;60.79;99368.13;4987976;28;20226;-78
2023/06/03 08:01:42;;;;;;;3.53;1.83;;;;;;;17.58;61.98;99371.66;4986775;28;20245;-77
2023/06/03 08:04:30;;;;;;;6.07;1.97;;;;;;;17.39;61.34;99371.59;4983349;28;20207;-78
2023/06/03 08:06:59;;;;;;;3.83;2.37;;;;;;;17.53;61.45;99360.50;4986868;28;20230;-78
2023/06/03 08:09:30;;;;;;;4.07;2.10;;;;;;;17.67;62.43;99368.16;4998131;28;20200;-77
2023/06/03 08:11:59;;;;;;;4.70;1.50;;;;;;;17.74;62.94;99363.94;5032708;28;20198;-78
2023/06/03 08:14:31;;;;;;;4.90;1.80;;;;;;;18.03;62.08;99366.66;5027637;28;20204;-77
2023/06/03 08:17:03;;;;;;;3.67;1.90;;;;;;;17.99;60.77;99365.25;5021381;28;20201;-77
2023/06/03 08:19:34;;;;;;;2.80;1.60;;;;;;;18.13;61.38;99365.81;5027679;28;20304;-77
2023/06/03 08:22:02;;;;;;;6.17;2.60;;;;;;;18.35;60.76;99368.22;5023332;28;20197;-78
2023/06/03 08:24:30;;;;;;;2.40;1.40;;;;;;;18.52;59.36;99364.78;5024769;28;20209;-78
2023/06/03 08:26:59;;;;;;;3.20;1.80;;;;;;;18.71;59.19;99357.75;5025152;28;20723;-78
2023/06/03 08:29:29;;;;;;;2.77;1.67;;;;;;;18.63;59.24;99362.97;5023581;28;20202;-78
2023/06/03 08:31:57;;;;;;;5.97;2.50;;;;;;;18.98;57.06;99365.00;5026929;28;20206;-78
2023/06/03 08:34:25;;;;;;;4.20;1.80;;;;;;;19.10;55.71;99359.31;5028862;28;20190;-78
2023/06/03 08:36:54;;;;;;;3.50;1.80;;;;;;;19.12;55.44;99357.34;5022804;28;20201;-78
2023/06/03 08:39:22;;;;;;;6.10;3.80;;;;;;;18.86;54.96;99361.66;5025302;28;20224;-77
2023/06/03 08:41:55;;;;;;;3.60;2.33;;;;;;;18.95;55.95;99363.47;5028739;28;20297;-78
2023/06/03 08:44:35;;;;;;;2.97;1.90;;;;;;;19.01;57.97;99351.28;5021077;28;20202;-78
2023/06/03 08:47:12;;;;;;;10.00;4.53;;;;;;;19.32;57.47;99352.72;5027000;28;20201;-78
2023/06/03 08:49:48;;;;;;;7.43;4.50;;;;;;;19.71;56.69;99353.38;5024373;28;20205;-78
2023/06/03 08:52:20;;;;;;;4.43;2.17;;;;;;;19.51;55.38;99359.84;5024359;28;20204;-78
2023/06/03 08:54:49;;;;;;;3.97;2.03;;;;;;;19.80;53.34;99356.16;5023664;28;20295;-77
2023/06/03 08:57:19;;;;;;;3.33;1.60;;;;;;;19.59;54.64;99361.78;5028396;28;20690;-78
2023/06/03 08:59:54;;;;;;;4.07;1.63;;;;;;;19.82;54.41;99360.38;5024996;28;20217;-78
2023/06/03 09:02:24;;;;;;;8.97;1.80;;;;;;;19.76;54.81;99352.06;5026113;28;20189;-77
2023/06/03 09:04:54;;;;;;;2.85;1.58;;;;;;;19.83;54.26;99358.53;5026014;28;20716;-78
2023/06/03 09:07:24;;;;;;;3.88;2.00;;;;;;;19.96;52.92;99353.59;5026486;28;20194;-78
2023/06/03 09:09:56;;;;;;;4.10;1.90;;;;;;;20.04;52.62;99353.69;5027208;28;20202;-78
2023/06/03 09:12:27;;;;;;;3.37;2.10;;;;;;;20.32;51.65;99353.59;5029732;28;20236;-77
2023/06/03 09:15:00;;;;;;;4.73;1.70;;;;;;;20.34;51.72;99357.81;5029634;28;20243;-77
2023/06/03 09:17:30;;;;;;;4.88;2.10;;;;;;;20.56;52.17;99348.47;5025444;28;20252;-77
2023/06/03 09:20:02;;;;;;;4.40;1.80;;;;;;;20.57;50.62;99344.75;5027255;28;20221;-77
2023/06/03 09:22:31;;;;;;;4.45;1.77;;;;;;;20.65;51.16;99346.63;5023418;28;20209;-77
2023/06/03 09:24:59;;;;;;;4.20;1.80;;;;;;;20.86;49.15;99352.53;5028548;28;20205;-78
2023/06/03 09:27:28;;;;;;;3.30;1.80;;;;;;;20.81;49.55;99354.84;5036441;28;20384;-78
2023/06/03 09:29:58;;;;;;;3.73;1.63;;;;;;;20.56;50.08;99351.16;5030459;28;20198;-78
2023/06/03 09:32:27;;;;;;;6.80;2.20;;;;;;;20.73;48.85;99349.41;5028967;28;20292;-78
2023/06/03 09:34:56;;;;;;;3.20;2.05;;;;;;;21.18;46.63;99351.84;5030907;28;20200;-78
2023/06/03 09:37:25;;;;;;;4.60;1.98;;;;;;;21.24;47.35;99359.31;5031854;28;20212;-77
2023/06/03 09:40:00;;;;;;;7.20;2.08;;;;;;;21.06;49.04;99351.28;5033884;28;20213;-78
2023/06/03 09:42:42;;;;;;;6.40;2.17;;;;;;;21.17;46.04;99355.56;5035978;28;20190;-78
2023/06/03 09:45:23;;;;;;;4.63;2.13;;;;;;;21.24;45.76;99351.22;5035871;28;20247;-77
2023/06/03 09:47:51;;;;;;;3.17;1.88;;;;;;;21.33;47.49;99347.59;4932585;29;20208;-78
2023/06/03 09:50:22;;;;;;;4.17;2.10;;;;;;;21.55;45.05;99353.38;4933580;29;20225;-77
2023/06/03 09:52:50;;;;;;;6.18;1.80;;;;;;;21.53;45.99;99341.94;4930973;29;20223;-77
2023/06/03 09:55:22;;;;;;;2.58;1.58;;;;;;;21.52;46.98;99343.78;4932125;29;20196;-78
2023/06/03 09:58:05;;;;;;;2.67;2.00;;;;;;;22.09;46.06;99348.47;4930901;29;20201;-78
2023/06/03 10:00:48;;;;;;;4.00;1.73;;;;;;;21.86;44.58;99346.38;4931939;29;20221;-78
2023/06/03 10:03:18;;;;;;;4.93;2.25;;;;;;;22.15;43.50;99353.19;4927759;29;20773;-78
2023/06/03 10:05:47;;;;;;;5.20;2.13;;;;;;;21.81;43.67;99350.56;4972990;28;20186;-78
2023/06/03 10:08:15;;;;;;;4.40;2.03;;;;;;;21.90;43.35;99354.97;5028656;28;20206;-78
2023/06/03 10:10:55;;;;;;;3.58;2.08;;;;;;;22.02;45.31;99350.13;5032113;28;20229;-78
2023/06/03 10:13:24;;;;;;;5.13;2.10;;;;;;;22.45;43.83;99352.53;5029016;28;20201;-78
2023/06/03 10:15:54;;;;;;;3.92;1.83;;;;;;;22.94;43.17;99346.25;5027348;28;20198;-78
2023/06/03 10:18:37;;;;;;;5.70;2.42;;;;;;;22.84;42.52;99355.38;5035264;28;20194;-78
2023/06/03 10:21:10;;;;;;;9.20;2.40;;;;;;;22.54;41.91;99354.22;5029609;28;20304;-77
2023/06/03 10:23:39;;;;;;;4.50;1.67;;;;;;;22.96;40.68;99347.75;5032072;28;20202;-78
2023/06/03 10:26:09;;;;;;;5.15;2.00;;;;;;;22.94;40.85;99343.53;5027736;28;20241;-78
2023/06/03 10:28:38;;;;;;;3.92;1.90;;;;;;;22.83;40.73;99347.41;5027476;28;20193;-78
2023/06/03 10:31:09;;;;;;;3.83;1.77;;;;;;;23.45;40.00;99347.59;5028102;28;20194;-78
2023/06/03 10:33:38;;;;;;;3.30;1.75;;;;;;;23.34;39.95;99329.03;5031276;28;20244;-77
2023/06/03 10:36:09;;;;;;;8.23;2.30;;;;;;;23.60;39.45;99334.19;5029466;28;20204;-78
2023/06/03 10:38:39;;;;;;;3.83;2.10;;;;;;;23.83;35.92;99334.22;5032253;28;20190;-77
2023/06/03 10:41:12;;;;;;;3.50;2.58;;;;;;;23.96;35.24;99334.50;5034507;28;20711;-78
2023/06/03 10:43:43;;;;;;;5.20;2.20;;;;;;;23.77;35.51;99332.25;5027143;28;20207;-78
2023/06/03 10:46:14;;;;;;;4.03;2.15;;;;;;;23.71;36.07;99328.38;5027598;28;20207;-79
2023/06/03 10:48:45;;;;;;;6.65;2.10;;;;;;;23.66;37.77;99322.69;5034640;28;20186;-77
2023/06/03 10:51:41;;;;;;;3.35;2.10;;;;;;;23.36;37.24;99330.56;5023149;28;20209;-78
2023/06/03 10:54:23;;;;;;;5.05;1.83;;;;;;;24.28;35.96;99328.81;5033506;28;20197;-77
2023/06/03 10:56:56;;;;;;;4.53;2.33;;;;;;;24.37;34.59;99331.50;5030608;28;20213;-78
2023/06/03 10:59:28;;;;;;;3.58;2.10;;;;;;;24.12;34.97;99333.50;5032086;28;20206;-78
2023/06/03 11:02:00;;;;;;;3.90;2.00;;;;;;;24.15;34.88;99335.88;5029873;28;20249;-78
2023/06/03 11:04:30;;;;;;;2.55;2.00;;;;;;;24.64;34.96;99325.47;5030404;28;20655;-78
2023/06/03 11:06:58;;;;;;;2.90;2.15;;;;;;;24.26;35.51;99321.91;5034249;28;20198;-78
2023/06/03 11:09:37;;;;;;;2.70;2.03;;;;;;;24.47;35.47;99319.38;5026065;28;20272;-78
2023/06/03 11:12:13;;;;;;;4.90;2.35;;;;;;;24.46;34.57;99317.69;5033997;28;20284;-78
2023/06/03 11:14:55;;;;;;;5.78;2.17;;;;;;;24.16;35.60;99324.03;5031081;28;20197;-78
2023/06/03 11:17:26;;;;;;;4.00;2.10;;;;;;;24.50;35.64;99326.28;5029855;28;20186;-78
2023/06/03 11:19:57;;;;;;;7.00;2.00;;;;;;;24.72;34.91;99325.41;5029682;28;20676;-78
2023/06/03 11:22:47;;;;;;;4.53;2.30;;;;;;;24.57;35.95;99323.69;5028506;28;20221;-78
2023/06/03 11:25:39;;;;;;;3.78;2.35;;;;;;;25.35;33.94;99320.47;5026776;28;20198;-78
2023/06/03 11:28:34;;;;;;;5.30;2.00;;;;;;;24.95;34.86;99321.78;5001643;28;20366;-78
2023/06/03 11:31:08;;;;;;;2.58;2.08;;;;;;;25.13;34.17;99322.28;5008564;28;20198;-79
2023/06/03 11:33:38;;;;;;;2.38;1.98;;;;;;;25.62;34.45;99317.06;5013720;28;20302;-79
2023/06/03 11:36:56;;;;;;;4.10;2.17;;;;;;;25.71;32.18;99320.53;5013953;28;20194;-79
2023/06/03 11:39:24;;;;;;;3.22;1.80;;;;;;;25.69;32.68;99317.97;5013311;28;20605;-79
2023/06/03 11:42:10;;;;;;;3.72;2.15;;;;;;;24.79;34.62;99320.06;5006861;28;20230;-78
2023/06/03 11:44:42;;;;;;;3.10;1.98;;;;;;;25.71;33.58;99314.25;5013691;28;20716;-78
2023/06/03 11:47:10;;;;;;;3.33;1.80;;;;;;;26.01;32.08;99307.69;5006417;28;20217;-78
2023/06/03 11:49:41;;;;;;;3.95;2.30;;;;;;;26.17;33.05;99312.88;5007531;28;20202;-78